Laporte, Minnesota
Current Conditions -  °F | °C
As of 3:35 AM on Sunday 23 Nov 2014 (Local Time) from KY49 Reporting Station
Moderate Fog Moderate Fog  
Wind Chill: 32°   Ceiling: 200
Heat Index: 32°   Visibility: 0.25mi
Dew Point: 32°   Wind: 3mph
Humidity: 100%   Direction: 170°S
Pressure: 29.38"   Gusts: NA
Location:  47.21°N, 94.75°W
Report Text: KY49 230935Z AUTO 17003KT 1/4SM FG OVC002 00/00 A2938 RMK AO2 T00000000
Loading
Personal Weather Stations






























Interactive Weather Map New forecast layout! Learn more

10-Day Weather Forecast

Advertisements
Track Severe Weather on mobile